sensor_id;sensor_type;location;lat;lon;timestamp;P1;durP1;ratioP1;P2;durP2;ratioP2
20336;SDS011;10326;53.660;10.200;2022-09-09T00:01:15;21.85;;;18.60;;
20336;SDS011;10326;53.660;10.200;2022-09-09T00:03:57;22.25;;;19.95;;
20336;SDS011;10326;53.660;10.200;2022-09-09T00:06:31;23.65;;;21.13;;
20336;SDS011;10326;53.660;10.200;2022-09-09T00:09:10;22.52;;;19.73;;
20336;SDS011;10326;53.660;10.200;2022-09-09T00:11:45;21.55;;;19.30;;
20336;SDS011;10326;53.660;10.200;2022-09-09T00:14:20;22.55;;;20.25;;
20336;SDS011;10326;53.660;10.200;2022-09-09T00:16:56;22.35;;;19.63;;
20336;SDS011;10326;53.660;10.200;2022-09-09T00:19:30;22.92;;;18.40;;
20336;SDS011;10326;53.660;10.200;2022-09-09T00:22:12;21.73;;;19.45;;
20336;SDS011;10326;53.660;10.200;2022-09-09T00:24:44;24.73;;;20.00;;
20336;SDS011;10326;53.660;10.200;2022-09-09T00:27:18;20.08;;;17.98;;
20336;SDS011;10326;53.660;10.200;2022-09-09T00:29:54;21.38;;;18.92;;
20336;SDS011;10326;53.660;10.200;2022-09-09T00:32:27;22.05;;;19.33;;
20336;SDS011;10326;53.660;10.200;2022-09-09T00:34:59;24.17;;;19.48;;
20336;SDS011;10326;53.660;10.200;2022-09-09T00:37:37;22.50;;;19.42;;
20336;SDS011;10326;53.660;10.200;2022-09-09T00:40:11;32.83;;;19.05;;
20336;SDS011;10326;53.660;10.200;2022-09-09T00:42:54;23.08;;;18.92;;
20336;SDS011;10326;53.660;10.200;2022-09-09T00:46:01;22.45;;;18.52;;
20336;SDS011;10326;53.660;10.200;2022-09-09T00:48:50;22.08;;;18.05;;
20336;SDS011;10326;53.660;10.200;2022-09-09T00:51:29;21.15;;;18.50;;
20336;SDS011;10326;53.660;10.200;2022-09-09T00:54:15;20.13;;;18.02;;
20336;SDS011;10326;53.660;10.200;2022-09-09T00:57:01;18.98;;;17.02;;
20336;SDS011;10326;53.660;10.200;2022-09-09T00:59:45;19.10;;;15.77;;
20336;SDS011;10326;53.660;10.200;2022-09-09T01:02:18;18.42;;;16.17;;
20336;SDS011;10326;53.660;10.200;2022-09-09T01:04:54;16.15;;;14.68;;
20336;SDS011;10326;53.660;10.200;2022-09-09T01:07:25;17.15;;;15.43;;
20336;SDS011;10326;53.660;10.200;2022-09-09T01:09:54;15.88;;;14.20;;
20336;SDS011;10326;53.660;10.200;2022-09-09T01:12:24;16.75;;;15.15;;
20336;SDS011;10326;53.660;10.200;2022-09-09T01:15:01;16.02;;;14.57;;
20336;SDS011;10326;53.660;10.200;2022-09-09T01:17:45;16.38;;;14.77;;
20336;SDS011;10326;53.660;10.200;2022-09-09T01:20:20;17.25;;;15.45;;
20336;SDS011;10326;53.660;10.200;2022-09-09T01:23:01;17.02;;;15.07;;
20336;SDS011;10326;53.660;10.200;2022-09-09T01:26:15;15.55;;;14.05;;
20336;SDS011;10326;53.660;10.200;2022-09-09T01:28:48;16.02;;;14.43;;
20336;SDS011;10326;53.660;10.200;2022-09-09T01:31:20;14.90;;;13.50;;
20336;SDS011;10326;53.660;10.200;2022-09-09T01:33:53;16.73;;;15.20;;
20336;SDS011;10326;53.660;10.200;2022-09-09T01:36:29;16.55;;;14.85;;
20336;SDS011;10326;53.660;10.200;2022-09-09T01:39:03;16.05;;;14.55;;
20336;SDS011;10326;53.660;10.200;2022-09-09T01:41:34;17.98;;;16.13;;
20336;SDS011;10326;53.660;10.200;2022-09-09T01:44:12;16.05;;;14.55;;
20336;SDS011;10326;53.660;10.200;2022-09-09T01:46:43;16.10;;;14.60;;
20336;SDS011;10326;53.660;10.200;2022-09-09T01:49:15;15.85;;;14.35;;
20336;SDS011;10326;53.660;10.200;2022-09-09T01:51:44;17.25;;;15.13;;
20336;SDS011;10326;53.660;10.200;2022-09-09T01:54:17;16.10;;;14.60;;
20336;SDS011;10326;53.660;10.200;2022-09-09T01:56:50;15.55;;;14.15;;
20336;SDS011;10326;53.660;10.200;2022-09-09T01:59:45;16.02;;;14.43;;
20336;SDS011;10326;53.660;10.200;2022-09-09T02:02:41;15.02;;;13.63;;
20336;SDS011;10326;53.660;10.200;2022-09-09T02:05:26;14.65;;;13.18;;
20336;SDS011;10326;53.660;10.200;2022-09-09T02:08:05;15.52;;;14.02;;
20336;SDS011;10326;53.660;10.200;2022-09-09T02:10:50;15.85;;;14.38;;
20336;SDS011;10326;53.660;10.200;2022-09-09T02:13:36;16.05;;;14.35;;
20336;SDS011;10326;53.660;10.200;2022-09-09T02:16:08;15.40;;;13.90;;
20336;SDS011;10326;53.660;10.200;2022-09-09T02:18:45;15.23;;;13.75;;
20336;SDS011;10326;53.660;10.200;2022-09-09T02:21:21;17.98;;;14.85;;
20336;SDS011;10326;53.660;10.200;2022-09-09T02:23:49;16.17;;;14.25;;
20336;SDS011;10326;53.660;10.200;2022-09-09T02:26:18;15.32;;;13.85;;
20336;SDS011;10326;53.660;10.200;2022-09-09T02:28:55;15.27;;;13.70;;
20336;SDS011;10326;53.660;10.200;2022-09-09T02:31:26;15.20;;;13.75;;
20336;SDS011;10326;53.660;10.200;2022-09-09T02:34:00;16.67;;;13.98;;
20336;SDS011;10326;53.660;10.200;2022-09-09T02:36:31;17.70;;;13.30;;
20336;SDS011;10326;53.660;10.200;2022-09-09T02:39:00;15.07;;;13.48;;
20336;SDS011;10326;53.660;10.200;2022-09-09T02:41:33;15.02;;;13.18;;
20336;SDS011;10326;53.660;10.200;2022-09-09T02:44:08;17.10;;;13.90;;
20336;SDS011;10326;53.660;10.200;2022-09-09T02:46:42;15.63;;;14.13;;
20336;SDS011;10326;53.660;10.200;2022-09-09T02:49:29;14.85;;;13.45;;
20336;SDS011;10326;53.660;10.200;2022-09-09T02:52:07;15.02;;;13.30;;
20336;SDS011;10326;53.660;10.200;2022-09-09T02:54:40;15.10;;;13.60;;
20336;SDS011;10326;53.660;10.200;2022-09-09T02:57:11;16.08;;;14.57;;
20336;SDS011;10326;53.660;10.200;2022-09-09T02:59:45;15.40;;;14.02;;
20336;SDS011;10326;53.660;10.200;2022-09-09T03:02:14;23.02;;;14.02;;
20336;SDS011;10326;53.660;10.200;2022-09-09T03:04:47;17.10;;;15.15;;
20336;SDS011;10326;53.660;10.200;2022-09-09T03:07:17;15.73;;;14.23;;
20336;SDS011;10326;53.660;10.200;2022-09-09T03:09:45;15.18;;;13.65;;
20336;SDS011;10326;53.660;10.200;2022-09-09T03:12:12;16.10;;;14.55;;
20336;SDS011;10326;53.660;10.200;2022-09-09T03:14:39;15.57;;;14.05;;
20336;SDS011;10326;53.660;10.200;2022-09-09T03:17:08;16.05;;;14.60;;
20336;SDS011;10326;53.660;10.200;2022-09-09T03:19:42;15.07;;;13.70;;
20336;SDS011;10326;53.660;10.200;2022-09-09T03:22:12;14.60;;;13.15;;
20336;SDS011;10326;53.660;10.200;2022-09-09T03:24:41;16.00;;;14.00;;
20336;SDS011;10326;53.660;10.200;2022-09-09T03:27:08;15.05;;;13.68;;
20336;SDS011;10326;53.660;10.200;2022-09-09T03:29:37;15.30;;;13.90;;
20336;SDS011;10326;53.660;10.200;2022-09-09T03:32:09;15.00;;;13.60;;
20336;SDS011;10326;53.660;10.200;2022-09-09T03:34:38;15.57;;;14.07;;
20336;SDS011;10326;53.660;10.200;2022-09-09T03:37:08;15.45;;;14.05;;
20336;SDS011;10326;53.660;10.200;2022-09-09T03:39:36;15.50;;;14.00;;
20336;SDS011;10326;53.660;10.200;2022-09-09T03:42:03;16.88;;;15.18;;
20336;SDS011;10326;53.660;10.200;2022-09-09T03:44:32;16.92;;;15.15;;
20336;SDS011;10326;53.660;10.200;2022-09-09T03:46:59;15.77;;;14.27;;
20336;SDS011;10326;53.660;10.200;2022-09-09T03:49:28;16.80;;;15.13;;
20336;SDS011;10326;53.660;10.200;2022-09-09T03:51:55;16.30;;;14.65;;
20336;SDS011;10326;53.660;10.200;2022-09-09T03:54:24;15.63;;;14.23;;
20336;SDS011;10326;53.660;10.200;2022-09-09T03:56:51;15.63;;;14.20;;
20336;SDS011;10326;53.660;10.200;2022-09-09T03:59:20;16.67;;;14.98;;
20336;SDS011;10326;53.660;10.200;2022-09-09T04:01:49;16.77;;;15.18;;
20336;SDS011;10326;53.660;10.200;2022-09-09T04:04:16;16.42;;;14.93;;
20336;SDS011;10326;53.660;10.200;2022-09-09T04:06:46;15.45;;;14.05;;
20336;SDS011;10326;53.660;10.200;2022-09-09T04:09:14;15.70;;;14.20;;
20336;SDS011;10326;53.660;10.200;2022-09-09T04:11:41;16.15;;;14.65;;
20336;SDS011;10326;53.660;10.200;2022-09-09T04:14:08;15.68;;;14.20;;
20336;SDS011;10326;53.660;10.200;2022-09-09T04:16:35;15.30;;;13.90;;
20336;SDS011;10326;53.660;10.200;2022-09-09T04:19:03;15.95;;;14.45;;
20336;SDS011;10326;53.660;10.200;2022-09-09T04:21:32;15.32;;;13.93;;
20336;SDS011;10326;53.660;10.200;2022-09-09T04:24:02;15.90;;;14.38;;
20336;SDS011;10326;53.660;10.200;2022-09-09T04:26:29;15.77;;;14.38;;
20336;SDS011;10326;53.660;10.200;2022-09-09T04:28:58;15.23;;;13.82;;
20336;SDS011;10326;53.660;10.200;2022-09-09T04:31:25;14.77;;;13.48;;
20336;SDS011;10326;53.660;10.200;2022-09-09T04:33:55;15.05;;;13.65;;
20336;SDS011;10326;53.660;10.200;2022-09-09T04:36:23;14.95;;;13.63;;
20336;SDS011;10326;53.660;10.200;2022-09-09T04:38:54;16.50;;;14.90;;
20336;SDS011;10326;53.660;10.200;2022-09-09T04:41:23;16.33;;;14.85;;
20336;SDS011;10326;53.660;10.200;2022-09-09T04:43:52;15.30;;;13.90;;
20336;SDS011;10326;53.660;10.200;2022-09-09T04:46:20;16.05;;;14.65;;
20336;SDS011;10326;53.660;10.200;2022-09-09T04:48:48;16.25;;;14.77;;
20336;SDS011;10326;53.660;10.200;2022-09-09T04:51:17;15.82;;;14.23;;
20336;SDS011;10326;53.660;10.200;2022-09-09T04:53:47;15.88;;;14.38;;
20336;SDS011;10326;53.660;10.200;2022-09-09T04:56:16;15.30;;;13.82;;
20336;SDS011;10326;53.660;10.200;2022-09-09T04:58:51;15.50;;;14.10;;
20336;SDS011;10326;53.660;10.200;2022-09-09T05:01:21;14.77;;;13.43;;
20336;SDS011;10326;53.660;10.200;2022-09-09T05:03:50;14.65;;;13.30;;
20336;SDS011;10326;53.660;10.200;2022-09-09T05:06:21;14.57;;;13.18;;
20336;SDS011;10326;53.660;10.200;2022-09-09T05:08:53;14.85;;;13.50;;
20336;SDS011;10326;53.660;10.200;2022-09-09T05:11:27;15.18;;;13.63;;
20336;SDS011;10326;53.660;10.200;2022-09-09T05:14:30;13.32;;;12.13;;
20336;SDS011;10326;53.660;10.200;2022-09-09T05:16:59;14.63;;;13.23;;
20336;SDS011;10326;53.660;10.200;2022-09-09T05:19:26;14.20;;;12.88;;
20336;SDS011;10326;53.660;10.200;2022-09-09T05:21:54;14.20;;;12.90;;
20336;SDS011;10326;53.660;10.200;2022-09-09T05:24:29;12.75;;;11.65;;
20336;SDS011;10326;53.660;10.200;2022-09-09T05:26:59;13.55;;;12.25;;
20336;SDS011;10326;53.660;10.200;2022-09-09T05:29:27;12.93;;;11.73;;
20336;SDS011;10326;53.660;10.200;2022-09-09T05:31:57;13.07;;;11.88;;
20336;SDS011;10326;53.660;10.200;2022-09-09T05:34:24;12.50;;;11.38;;
20336;SDS011;10326;53.660;10.200;2022-09-09T05:36:52;12.40;;;11.20;;
20336;SDS011;10326;53.660;10.200;2022-09-09T05:39:21;11.85;;;10.82;;
20336;SDS011;10326;53.660;10.200;2022-09-09T05:41:48;12.20;;;11.00;;
20336;SDS011;10326;53.660;10.200;2022-09-09T05:44:16;12.27;;;11.10;;
20336;SDS011;10326;53.660;10.200;2022-09-09T05:46:44;11.52;;;10.52;;
20336;SDS011;10326;53.660;10.200;2022-09-09T05:49:14;11.15;;;10.15;;
20336;SDS011;10326;53.660;10.200;2022-09-09T05:51:43;10.27;;;9.32;;
20336;SDS011;10326;53.660;10.200;2022-09-09T05:54:12;10.63;;;9.65;;
20336;SDS011;10326;53.660;10.200;2022-09-09T05:56:43;11.02;;;9.85;;
20336;SDS011;10326;53.660;10.200;2022-09-09T05:59:12;10.15;;;9.27;;
20336;SDS011;10326;53.660;10.200;2022-09-09T06:01:40;9.50;;;8.70;;
20336;SDS011;10326;53.660;10.200;2022-09-09T06:04:15;9.50;;;8.60;;
20336;SDS011;10326;53.660;10.200;2022-09-09T06:06:43;10.02;;;8.38;;
20336;SDS011;10326;53.660;10.200;2022-09-09T06:09:14;8.85;;;8.15;;
20336;SDS011;10326;53.660;10.200;2022-09-09T06:11:42;9.10;;;8.23;;
20336;SDS011;10326;53.660;10.200;2022-09-09T06:14:10;8.32;;;7.50;;
20336;SDS011;10326;53.660;10.200;2022-09-09T06:16:38;8.85;;;8.05;;
20336;SDS011;10326;53.660;10.200;2022-09-09T06:19:15;7.93;;;7.20;;
20336;SDS011;10326;53.660;10.200;2022-09-09T06:21:43;8.48;;;7.68;;
20336;SDS011;10326;53.660;10.200;2022-09-09T06:24:11;8.43;;;7.72;;
20336;SDS011;10326;53.660;10.200;2022-09-09T06:26:42;7.68;;;6.97;;
20336;SDS011;10326;53.660;10.200;2022-09-09T06:29:13;8.02;;;7.30;;
20336;SDS011;10326;53.660;10.200;2022-09-09T06:31:41;7.45;;;6.75;;
20336;SDS011;10326;53.660;10.200;2022-09-09T06:34:13;7.50;;;6.85;;
20336;SDS011;10326;53.660;10.200;2022-09-09T06:36:46;7.25;;;6.65;;
20336;SDS011;10326;53.660;10.200;2022-09-09T06:39:13;7.95;;;7.15;;
20336;SDS011;10326;53.660;10.200;2022-09-09T06:41:41;7.32;;;6.63;;
20336;SDS011;10326;53.660;10.200;2022-09-09T06:44:21;7.75;;;6.95;;
20336;SDS011;10326;53.660;10.200;2022-09-09T06:46:48;6.95;;;6.35;;
20336;SDS011;10326;53.660;10.200;2022-09-09T06:49:17;7.05;;;6.38;;
20336;SDS011;10326;53.660;10.200;2022-09-09T06:51:45;7.45;;;6.78;;
20336;SDS011;10326;53.660;10.200;2022-09-09T06:54:12;7.53;;;5.95;;
20336;SDS011;10326;53.660;10.200;2022-09-09T06:56:43;6.40;;;5.80;;
20336;SDS011;10326;53.660;10.200;2022-09-09T06:59:20;6.00;;;5.50;;
20336;SDS011;10326;53.660;10.200;2022-09-09T07:01:48;6.13;;;5.53;;
20336;SDS011;10326;53.660;10.200;2022-09-09T07:04:18;5.68;;;5.03;;
20336;SDS011;10326;53.660;10.200;2022-09-09T07:06:46;5.57;;;5.07;;
20336;SDS011;10326;53.660;10.200;2022-09-09T07:09:17;5.95;;;5.40;;
20336;SDS011;10326;53.660;10.200;2022-09-09T07:11:48;5.47;;;4.97;;
20336;SDS011;10326;53.660;10.200;2022-09-09T07:14:20;5.47;;;5.07;;
20336;SDS011;10326;53.660;10.200;2022-09-09T07:16:52;5.65;;;5.15;;
20336;SDS011;10326;53.660;10.200;2022-09-09T07:19:21;5.65;;;5.22;;
20336;SDS011;10326;53.660;10.200;2022-09-09T07:21:51;5.43;;;4.93;;
20336;SDS011;10326;53.660;10.200;2022-09-09T07:24:21;5.72;;;5.10;;
20336;SDS011;10326;53.660;10.200;2022-09-09T07:26:49;5.30;;;4.80;;
20336;SDS011;10326;53.660;10.200;2022-09-09T07:29:17;6.18;;;5.43;;
20336;SDS011;10326;53.660;10.200;2022-09-09T07:31:44;5.32;;;4.65;;
20336;SDS011;10326;53.660;10.200;2022-09-09T07:34:16;4.70;;;4.30;;
20336;SDS011;10326;53.660;10.200;2022-09-09T07:36:45;5.25;;;4.80;;
20336;SDS011;10326;53.660;10.200;2022-09-09T07:39:15;5.82;;;4.72;;
20336;SDS011;10326;53.660;10.200;2022-09-09T07:41:48;4.47;;;4.07;;
20336;SDS011;10326;53.660;10.200;2022-09-09T07:44:20;4.85;;;4.35;;
20336;SDS011;10326;53.660;10.200;2022-09-09T07:47:02;5.82;;;4.25;;
20336;SDS011;10326;53.660;10.200;2022-09-09T07:49:35;4.72;;;4.03;;
20336;SDS011;10326;53.660;10.200;2022-09-09T07:52:05;4.50;;;4.10;;
20336;SDS011;10326;53.660;10.200;2022-09-09T07:54:32;5.50;;;4.68;;
20336;SDS011;10326;53.660;10.200;2022-09-09T07:57:03;5.93;;;4.75;;
20336;SDS011;10326;53.660;10.200;2022-09-09T07:59:33;4.43;;;4.03;;
20336;SDS011;10326;53.660;10.200;2022-09-09T08:02:02;4.43;;;3.95;;
20336;SDS011;10326;53.660;10.200;2022-09-09T08:04:32;5.30;;;4.45;;
20336;SDS011;10326;53.660;10.200;2022-09-09T08:07:00;5.93;;;4.60;;
20336;SDS011;10326;53.660;10.200;2022-09-09T08:09:34;5.38;;;4.28;;
20336;SDS011;10326;53.660;10.200;2022-09-09T08:12:08;4.53;;;3.90;;
20336;SDS011;10326;53.660;10.200;2022-09-09T08:14:35;4.63;;;4.00;;
20336;SDS011;10326;53.660;10.200;2022-09-09T08:17:03;4.22;;;3.92;;
20336;SDS011;10326;53.660;10.200;2022-09-09T08:19:32;4.38;;;3.97;;
20336;SDS011;10326;53.660;10.200;2022-09-09T08:22:02;5.05;;;4.60;;
20336;SDS011;10326;53.660;10.200;2022-09-09T08:24:32;4.88;;;4.05;;
20336;SDS011;10326;53.660;10.200;2022-09-09T08:27:03;4.47;;;3.85;;
20336;SDS011;10326;53.660;10.200;2022-09-09T08:29:31;4.15;;;3.80;;
20336;SDS011;10326;53.660;10.200;2022-09-09T08:31:59;4.05;;;3.75;;
20336;SDS011;10326;53.660;10.200;2022-09-09T08:34:28;3.65;;;3.35;;
20336;SDS011;10326;53.660;10.200;2022-09-09T08:36:58;4.28;;;3.72;;
20336;SDS011;10326;53.660;10.200;2022-09-09T08:39:32;3.97;;;3.67;;
20336;SDS011;10326;53.660;10.200;2022-09-09T08:42:04;4.50;;;4.10;;
20336;SDS011;10326;53.660;10.200;2022-09-09T08:47:59;4.18;;;3.78;;
20336;SDS011;10326;53.660;10.200;2022-09-09T08:50:43;4.45;;;4.05;;
20336;SDS011;10326;53.660;10.200;2022-09-09T08:53:18;4.65;;;4.18;;
20336;SDS011;10326;53.660;10.200;2022-09-09T08:55:51;4.00;;;3.60;;
20336;SDS011;10326;53.660;10.200;2022-09-09T08:58:33;3.70;;;3.38;;
20336;SDS011;10326;53.660;10.200;2022-09-09T09:01:11;3.90;;;3.25;;
20336;SDS011;10326;53.660;10.200;2022-09-09T09:04:00;3.50;;;3.20;;
20336;SDS011;10326;53.660;10.200;2022-09-09T09:06:39;3.65;;;2.80;;
20336;SDS011;10326;53.660;10.200;2022-09-09T09:09:18;3.40;;;3.10;;
20336;SDS011;10326;53.660;10.200;2022-09-09T09:11:53;3.28;;;2.75;;
20336;SDS011;10326;53.660;10.200;2022-09-09T09:14:29;4.88;;;2.80;;
20336;SDS011;10326;53.660;10.200;2022-09-09T09:17:03;4.95;;;2.95;;
20336;SDS011;10326;53.660;10.200;2022-09-09T09:19:34;3.90;;;2.40;;
20336;SDS011;10326;53.660;10.200;2022-09-09T09:22:06;2.38;;;2.15;;
20336;SDS011;10326;53.660;10.200;2022-09-09T09:24:45;3.03;;;2.42;;
20336;SDS011;10326;53.660;10.200;2022-09-09T09:27:25;3.05;;;2.47;;
20336;SDS011;10326;53.660;10.200;2022-09-09T09:30:01;3.38;;;2.47;;
20336;SDS011;10326;53.660;10.200;2022-09-09T09:32:39;3.08;;;2.30;;
20336;SDS011;10326;53.660;10.200;2022-09-09T09:35:16;4.10;;;2.30;;
20336;SDS011;10326;53.660;10.200;2022-09-09T09:37:43;2.47;;;2.22;;
20336;SDS011;10326;53.660;10.200;2022-09-09T09:40:11;3.55;;;2.33;;
20336;SDS011;10326;53.660;10.200;2022-09-09T09:42:48;3.50;;;2.50;;
20336;SDS011;10326;53.660;10.200;2022-09-09T09:45:25;2.95;;;2.30;;
20336;SDS011;10326;53.660;10.200;2022-09-09T09:47:58;3.58;;;2.67;;
20336;SDS011;10326;53.660;10.200;2022-09-09T09:50:29;3.22;;;2.70;;
20336;SDS011;10326;53.660;10.200;2022-09-09T09:52:57;3.70;;;2.20;;
20336;SDS011;10326;53.660;10.200;2022-09-09T09:55:29;2.60;;;2.38;;
20336;SDS011;10326;53.660;10.200;2022-09-09T09:58:00;3.65;;;2.22;;
20336;SDS011;10326;53.660;10.200;2022-09-09T10:00:31;2.60;;;1.95;;
20336;SDS011;10326;53.660;10.200;2022-09-09T10:03:13;2.28;;;1.92;;
20336;SDS011;10326;53.660;10.200;2022-09-09T10:05:53;2.30;;;1.70;;
20336;SDS011;10326;53.660;10.200;2022-09-09T10:08:23;2.88;;;2.05;;
20336;SDS011;10326;53.660;10.200;2022-09-09T10:11:04;3.33;;;2.10;;
20336;SDS011;10326;53.660;10.200;2022-09-09T10:13:59;2.67;;;1.70;;
20336;SDS011;10326;53.660;10.200;2022-09-09T10:16:38;2.75;;;1.50;;
20336;SDS011;10326;53.660;10.200;2022-09-09T10:19:20;1.60;;;1.50;;
20336;SDS011;10326;53.660;10.200;2022-09-09T10:22:02;2.85;;;2.00;;
20336;SDS011;10326;53.660;10.200;2022-09-09T10:24:55;2.65;;;1.70;;
20336;SDS011;10326;53.660;10.200;2022-09-09T10:27:38;2.40;;;1.75;;
20336;SDS011;10326;53.660;10.200;2022-09-09T10:30:19;3.03;;;1.83;;
20336;SDS011;10326;53.660;10.200;2022-09-09T10:32:52;4.00;;;1.80;;
20336;SDS011;10326;53.660;10.200;2022-09-09T10:35:32;2.15;;;1.73;;
20336;SDS011;10326;53.660;10.200;2022-09-09T10:38:10;4.05;;;1.83;;
20336;SDS011;10326;53.660;10.200;2022-09-09T10:40:43;2.60;;;1.75;;
20336;SDS011;10326;53.660;10.200;2022-09-09T10:43:31;3.00;;;1.50;;
20336;SDS011;10326;53.660;10.200;2022-09-09T10:46:15;1.95;;;1.17;;
20336;SDS011;10326;53.660;10.200;2022-09-09T10:49:00;2.05;;;1.38;;
20336;SDS011;10326;53.660;10.200;2022-09-09T10:51:39;2.92;;;1.52;;
20336;SDS011;10326;53.660;10.200;2022-09-09T10:54:20;3.47;;;1.40;;
20336;SDS011;10326;53.660;10.200;2022-09-09T10:57:08;2.42;;;1.40;;
20336;SDS011;10326;53.660;10.200;2022-09-09T10:59:52;1.35;;;1.08;;
20336;SDS011;10326;53.660;10.200;2022-09-09T11:02:24;5.85;;;1.40;;
20336;SDS011;10326;53.660;10.200;2022-09-09T11:04:57;1.45;;;1.30;;
20336;SDS011;10326;53.660;10.200;2022-09-09T11:07:30;2.35;;;1.00;;
20336;SDS011;10326;53.660;10.200;2022-09-09T11:10:11;1.90;;;1.40;;
20336;SDS011;10326;53.660;10.200;2022-09-09T11:12:45;1.23;;;1.10;;
20336;SDS011;10326;53.660;10.200;2022-09-09T11:15:15;2.38;;;1.40;;
20336;SDS011;10326;53.660;10.200;2022-09-09T11:17:46;2.20;;;1.30;;
20336;SDS011;10326;53.660;10.200;2022-09-09T11:20:18;1.60;;;1.33;;
20336;SDS011;10326;53.660;10.200;2022-09-09T11:22:47;2.25;;;1.35;;
20336;SDS011;10326;53.660;10.200;2022-09-09T11:25:19;1.77;;;1.10;;
20336;SDS011;10326;53.660;10.200;2022-09-09T11:27:58;2.00;;;1.33;;
20336;SDS011;10326;53.660;10.200;2022-09-09T11:30:43;1.77;;;1.20;;
20336;SDS011;10326;53.660;10.200;2022-09-09T11:33:28;2.03;;;1.10;;
20336;SDS011;10326;53.660;10.200;2022-09-09T11:42:27;2.25;;;1.33;;
20336;SDS011;10326;53.660;10.200;2022-09-09T11:44:54;2.10;;;1.10;;
20336;SDS011;10326;53.660;10.200;2022-09-09T11:47:23;2.53;;;1.15;;
20336;SDS011;10326;53.660;10.200;2022-09-09T11:49:54;1.15;;;1.05;;
20336;SDS011;10326;53.660;10.200;2022-09-09T11:52:37;2.10;;;1.33;;
20336;SDS011;10326;53.660;10.200;2022-09-09T11:55:09;2.83;;;1.50;;
20336;SDS011;10326;53.660;10.200;2022-09-09T11:57:38;3.08;;;1.40;;
20336;SDS011;10326;53.660;10.200;2022-09-09T12:00:07;1.67;;;1.50;;
20336;SDS011;10326;53.660;10.200;2022-09-09T12:02:59;2.35;;;1.40;;
20336;SDS011;10326;53.660;10.200;2022-09-09T12:05:34;1.90;;;1.05;;
20336;SDS011;10326;53.660;10.200;2022-09-09T12:08:05;1.27;;;1.10;;
20336;SDS011;10326;53.660;10.200;2022-09-09T12:10:36;2.53;;;1.27;;
20336;SDS011;10326;53.660;10.200;2022-09-09T12:13:15;1.48;;;1.10;;
20336;SDS011;10326;53.660;10.200;2022-09-09T12:15:47;2.80;;;1.10;;
20336;SDS011;10326;53.660;10.200;2022-09-09T12:18:21;2.08;;;1.30;;
20336;SDS011;10326;53.660;10.200;2022-09-09T12:20:52;1.85;;;1.20;;
20336;SDS011;10326;53.660;10.200;2022-09-09T12:23:32;1.50;;;1.20;;
20336;SDS011;10326;53.660;10.200;2022-09-09T12:26:26;2.25;;;1.20;;
20336;SDS011;10326;53.660;10.200;2022-09-09T12:29:02;3.83;;;1.30;;
20336;SDS011;10326;53.660;10.200;2022-09-09T12:31:44;1.63;;;1.15;;
20336;SDS011;10326;53.660;10.200;2022-09-09T12:34:24;2.88;;;1.52;;
20336;SDS011;10326;53.660;10.200;2022-09-09T12:37:03;2.50;;;1.20;;
20336;SDS011;10326;53.660;10.200;2022-09-09T12:39:42;3.10;;;1.40;;
20336;SDS011;10326;53.660;10.200;2022-09-09T12:42:16;1.50;;;1.38;;
20336;SDS011;10326;53.660;10.200;2022-09-09T12:44:51;2.53;;;1.52;;
20336;SDS011;10326;53.660;10.200;2022-09-09T12:47:20;3.17;;;1.50;;
20336;SDS011;10326;53.660;10.200;2022-09-09T12:49:52;1.77;;;1.30;;
20336;SDS011;10326;53.660;10.200;2022-09-09T12:52:23;3.15;;;1.70;;
20336;SDS011;10326;53.660;10.200;2022-09-09T12:54:56;3.08;;;1.58;;
20336;SDS011;10326;53.660;10.200;2022-09-09T12:57:26;3.78;;;1.70;;
20336;SDS011;10326;53.660;10.200;2022-09-09T13:00:11;1.80;;;1.48;;
20336;SDS011;10326;53.660;10.200;2022-09-09T13:02:52;2.78;;;1.80;;
20336;SDS011;10326;53.660;10.200;2022-09-09T13:05:22;1.55;;;1.20;;
20336;SDS011;10326;53.660;10.200;2022-09-09T13:07:51;2.15;;;1.40;;
20336;SDS011;10326;53.660;10.200;2022-09-09T13:10:28;1.95;;;1.45;;
20336;SDS011;10326;53.660;10.200;2022-09-09T13:12:58;3.13;;;1.55;;
20336;SDS011;10326;53.660;10.200;2022-09-09T13:15:26;2.42;;;1.65;;
20336;SDS011;10326;53.660;10.200;2022-09-09T13:17:56;1.30;;;1.20;;
20336;SDS011;10326;53.660;10.200;2022-09-09T13:20:26;2.75;;;1.45;;
20336;SDS011;10326;53.660;10.200;2022-09-09T13:22:54;2.70;;;1.42;;
20336;SDS011;10326;53.660;10.200;2022-09-09T13:25:24;2.45;;;1.63;;
20336;SDS011;10326;53.660;10.200;2022-09-09T13:27:55;2.58;;;1.58;;
20336;SDS011;10326;53.660;10.200;2022-09-09T13:30:27;2.80;;;1.50;;
20336;SDS011;10326;53.660;10.200;2022-09-09T13:33:18;3.17;;;1.60;;
20336;SDS011;10326;53.660;10.200;2022-09-09T13:35:49;2.33;;;1.45;;
20336;SDS011;10326;53.660;10.200;2022-09-09T13:38:19;2.67;;;1.52;;
20336;SDS011;10326;53.660;10.200;2022-09-09T13:40:53;1.65;;;1.42;;
20336;SDS011;10326;53.660;10.200;2022-09-09T13:43:25;2.50;;;1.90;;
20336;SDS011;10326;53.660;10.200;2022-09-09T13:45:54;1.92;;;1.60;;
20336;SDS011;10326;53.660;10.200;2022-09-09T13:48:23;3.35;;;1.90;;
20336;SDS011;10326;53.660;10.200;2022-09-09T13:50:59;2.40;;;1.58;;
20336;SDS011;10326;53.660;10.200;2022-09-09T13:53:30;4.97;;;2.15;;
20336;SDS011;10326;53.660;10.200;2022-09-09T13:55:58;2.15;;;1.90;;
20336;SDS011;10326;53.660;10.200;2022-09-09T13:58:27;2.13;;;1.92;;
20336;SDS011;10326;53.660;10.200;2022-09-09T14:00:55;2.10;;;1.90;;
20336;SDS011;10326;53.660;10.200;2022-09-09T14:03:22;2.08;;;1.60;;
20336;SDS011;10326;53.660;10.200;2022-09-09T14:05:49;2.42;;;1.65;;
20336;SDS011;10326;53.660;10.200;2022-09-09T14:08:24;4.43;;;1.85;;
20336;SDS011;10326;53.660;10.200;2022-09-09T14:10:53;8.23;;;2.63;;
20336;SDS011;10326;53.660;10.200;2022-09-09T14:13:23;5.15;;;2.67;;
20336;SDS011;10326;53.660;10.200;2022-09-09T14:15:51;3.88;;;2.17;;
20336;SDS011;10326;53.660;10.200;2022-09-09T14:18:19;5.40;;;2.00;;
20336;SDS011;10326;53.660;10.200;2022-09-09T14:20:47;3.22;;;2.20;;
20336;SDS011;10326;53.660;10.200;2022-09-09T14:23:15;3.92;;;1.88;;
20336;SDS011;10326;53.660;10.200;2022-09-09T14:25:44;3.08;;;1.63;;
20336;SDS011;10326;53.660;10.200;2022-09-09T14:28:13;3.50;;;2.05;;
20336;SDS011;10326;53.660;10.200;2022-09-09T14:30:41;3.50;;;1.80;;
20336;SDS011;10326;53.660;10.200;2022-09-09T14:33:11;2.38;;;1.80;;
20336;SDS011;10326;53.660;10.200;2022-09-09T14:35:41;4.00;;;1.90;;
20336;SDS011;10326;53.660;10.200;2022-09-09T14:38:09;2.53;;;1.50;;
20336;SDS011;10326;53.660;10.200;2022-09-09T14:40:37;2.40;;;1.90;;
20336;SDS011;10326;53.660;10.200;2022-09-09T14:43:05;2.30;;;1.90;;
20336;SDS011;10326;53.660;10.200;2022-09-09T14:45:32;3.88;;;2.00;;
20336;SDS011;10326;53.660;10.200;2022-09-09T14:48:02;2.97;;;1.90;;
20336;SDS011;10326;53.660;10.200;2022-09-09T14:50:31;2.42;;;1.80;;
20336;SDS011;10326;53.660;10.200;2022-09-09T14:53:00;3.78;;;2.17;;
20336;SDS011;10326;53.660;10.200;2022-09-09T14:55:26;2.58;;;1.67;;
20336;SDS011;10326;53.660;10.200;2022-09-09T14:57:55;2.47;;;1.90;;
20336;SDS011;10326;53.660;10.200;2022-09-09T15:00:22;2.80;;;1.73;;
20336;SDS011;10326;53.660;10.200;2022-09-09T15:02:51;2.30;;;1.67;;
20336;SDS011;10326;53.660;10.200;2022-09-09T15:05:19;2.13;;;1.70;;
20336;SDS011;10326;53.660;10.200;2022-09-09T15:07:48;2.08;;;1.65;;